Fairfield Glade, Tennessee
Current Conditions -  °F | °C
As of 1:53 PM on Thursday 29 Jan 2015 (Local Time) from KCSV Reporting Station
Clear Clear  
Wind Chill: 58°   Ceiling: Unl
Heat Index: 58°   Visibility: 10mi
Dew Point: 36°   Wind: 14mph
Humidity: 44%   Direction: 240°WSW
Pressure: 30"   Gusts: 23mph
Location:  36.0033°N, 84.8901°W
Report Text: KCSV 291953Z AUTO 24012G20KT 200V270 10SM CLR 14/02 A3000 RMK AO2 SLP156 T01440022
Loading
Personal Weather Stations






























Interactive Weather Map New forecast layout! Learn more

10-Day Weather Forecast

Advertisements
Track Severe Weather on mobile